Selected Aviation Weather Reports

Never base important decisions on this or any weather information obtained from a non-NWS site!

Last update: Apr 11, 2021, 7:33 am CDT

 

TNC157 Flood Advisory  level:  Minor     fromApr 11 2021 12:28 am -  untilApr 14 2021 6:00 pm

Minimal threat to life or property - Responsive action SHOULD be taken soon (within next hour)

...The Flood Advisory continues for the following rivers in Tennessee...Arkansas...Missouri...Mississippi... Mississippi River at Caruthersville Mississippi River at Memphis ...The Flood Advisory remains in effect... The Flood Advisory continues for

METAR for KATL, KDFW, KEWR, KLAX, KMEM & KORD

METAR is also known as Meteorological Terminal Aviation Routine Weather Report or Meteorological Aerodrome Report.


2021/04/11 11:52 KATL 111152Z 25003KT 10SM FEW005 FEW070 FEW250 14/13 A2970 RMK AO2 SLP053 60001 70046 T01440133 10156 20139 53001

KATL, Apr 11, 2021, 11:52Z
Hartsfield-Jackson Atlanta International Airport
Wind: 250° @ 3 kts
Visibility: 10 Statute miles
Clouds: Few @ 500 ft
Few @ 7,000 ft
Few @ 25,000 ft
Altimeter: 29.70 in/Hg
Sea Level Pressure: 1005.3 mb
Temperature: 57.92°F (14.4°C)
Dew Point: 55.94°F (13.3°C)
Pressure trend, past 3 hrs: Pressure Trend 0.1 in/Hg
High Temp, past 6 hrs: 60.08°F (15.6°C)
Low Temp, past 6 hrs: 57.02°F (13.9°C)
Precipitation, last 6 hrs: 00.01 inches
Precipitation, last 24 hrs: 00.46 inches

2021/04/11 11:53 KDFW 111153Z 20005KT 10SM CLR 11/04 A2975 RMK AO2 SLP068 T01060044 10139 20094 53002

KDFW, Apr 11, 2021, 11:53Z
Dallas-Ft. Worth International Airport
Wind: 200° @ 5 kts
Visibility: 10 Statute miles
Clouds: Skies Clear
Altimeter: 29.75 in/Hg
Sea Level Pressure: 1006.8 mb
Temperature: 51.08°F (10.6°C)
Dew Point: 39.92°F (4.4°C)
Pressure trend, past 3 hrs: Pressure Trend 0.2 in/Hg
High Temp, past 6 hrs: 57.02°F (13.9°C)
Low Temp, past 6 hrs: 48.92°F (9.4°C)

2021/04/11 12:37 KEWR 111237Z 08004KT 1SM R04R/2200V3500FT -RA BR OVC002 12/12 A2965 RMK AO2 RAB37 P0000 T01220122 $

KEWR, Apr 11, 2021, 12:37Z
Newark Liberty International Airport
Wind: 080° @ 4 kts
Visibility: 1 Statute mile with Light Rain & Mist
Runway 04R RVR 2200 variable 3500 ft
Clouds: Overcast @ 200 ft
Altimeter: 29.65 in/Hg
Temperature: 53.96°F (12.2°C)
Dew Point: 53.96°F (12.2°C)
Precipitation, previous hr: None
Additional Remarks: 
Rain began @ 37 past the hr.
Maintenance Needed on the System.

2021/04/11 11:53 KLAX 111153Z 04004KT 9SM FEW012 SCT200 13/11 A2980 RMK AO2 SLP089 T01330111 10144 20133 56013

KLAX, Apr 11, 2021, 11:53Z
Los Angeles International Airport
Wind: 040° @ 4 kts
Visibility: 9 Statute miles
Clouds: Few @ 1,200 ft
Scattered @ 20,000 ft
Altimeter: 29.80 in/Hg
Sea Level Pressure: 1008.9 mb
Temperature: 55.94°F (13.3°C)
Dew Point: 51.98°F (11.1°C)
Pressure trend, past 3 hrs: Pressure Trend 1.3 in/Hg
High Temp, past 6 hrs: 57.92°F (14.4°C)
Low Temp, past 6 hrs: 55.94°F (13.3°C)

2021/04/11 11:54 KMEM 111154Z 22005KT 10SM FEW110 10/07 A2971 RMK AO2 SLP060 T01000067 10122 20100 51005 $

KMEM, Apr 11, 2021, 11:54Z
Memphis International Airport
Wind: 220° @ 5 kts
Visibility: 10 Statute miles
Clouds: Few @ 11,000 ft
Altimeter: 29.71 in/Hg
Sea Level Pressure: 1006.0 mb
Temperature: 50°F (10.0°C)
Dew Point: 44.06°F (6.7°C)
Pressure trend, past 3 hrs: Pressure Trend 0.5 in/Hg
High Temp, past 6 hrs: 53.96°F (12.2°C)
Low Temp, past 6 hrs: 50°F (10.0°C)
Additional Remarks: 
Maintenance Needed on the System.

2021/04/11 12:39 KORD 111239Z 00000KT 8SM OVC016 08/07 A2931 RMK AO2 T00830067

KORD, Apr 11, 2021, 12:39Z
Chicago O’Hare International Airport
Wind: Calm
Visibility: 8 Statute miles
Clouds: Overcast @ 1,600 ft
Altimeter: 29.31 in/Hg
Temperature: 46.94°F (8.3°C)
Dew Point: 44.06°F (6.7°C)

Top of page